Olustee, Florida
Current Conditions -  °F | °C
As of 3:35 PM on Thursday 27 Nov 2014 (Local Time) from KLCQ Reporting Station
Clear Clear  
Wind Chill: 59°   Ceiling: Unl
Heat Index: 59°   Visibility: 10mi
Dew Point: 32°   Wind: 14mph
Humidity: 36%   Direction: 310°NW
Pressure: 30.21"   Gusts: 17mph
Location:  30.2°N, 82.43°W
Report Text: KLCQ 272035Z AUTO 31012G15KT 10SM CLR 15/00 A3021 RMK AO2
Loading
Personal Weather Stations






























Interactive Weather Map New forecast layout! Learn more

10-Day Weather Forecast

Advertisements
Track Severe Weather on mobile